createdAt,value
2023-02-12T00:01:20.322Z,101284.50
2023-02-12T00:03:50.750Z,101285.50
2023-02-12T00:06:18.604Z,101277.56
2023-02-12T00:08:49.532Z,101275.13
2023-02-12T00:11:20.581Z,101261.28
2023-02-12T00:13:51.252Z,101261.81
2023-02-12T00:16:21.733Z,101261.66
2023-02-12T00:18:51.950Z,101260.06
2023-02-12T00:21:19.664Z,101258.72
2023-02-12T00:23:47.320Z,101257.63
2023-02-12T00:26:18.147Z,101251.28
2023-02-12T00:28:50.100Z,101240.00
2023-02-12T00:31:32.035Z,101250.06
2023-02-12T00:34:00.654Z,101247.09
2023-02-12T00:36:29.704Z,101244.28
2023-02-12T00:38:57.471Z,101234.53
2023-02-12T00:41:26.314Z,101219.72
2023-02-12T00:43:54.351Z,101226.28
2023-02-12T00:46:28.111Z,101225.97
2023-02-12T00:49:00.528Z,101206.47
2023-02-12T00:51:28.182Z,101211.97
2023-02-12T00:53:56.828Z,101226.91
2023-02-12T00:56:24.652Z,101230.00
2023-02-12T00:58:52.217Z,101229.38
2023-02-12T01:01:20.068Z,101221.63
2023-02-12T01:03:48.001Z,101228.88
2023-02-12T01:06:16.203Z,101223.75
2023-02-12T01:08:43.856Z,101223.38
2023-02-12T01:11:12.671Z,101230.59
2023-02-12T01:13:44.541Z,101223.59
2023-02-12T01:16:19.598Z,101222.88
2023-02-12T01:18:47.421Z,101229.97
2023-02-12T01:21:20.058Z,101224.22
2023-02-12T01:23:48.076Z,101214.06
2023-02-12T01:26:16.436Z,101223.22
2023-02-12T01:28:45.342Z,101216.28
2023-02-12T01:31:17.048Z,101205.38
2023-02-12T01:33:44.783Z,101205.25
2023-02-12T01:36:12.644Z,101205.38
2023-02-12T01:38:41.151Z,101206.00
2023-02-12T01:41:13.956Z,101194.25
2023-02-12T01:43:42.149Z,101198.16
2023-02-12T01:46:10.916Z,101192.53
2023-02-12T01:48:46.036Z,101188.13
2023-02-12T01:51:17.143Z,101183.06
2023-02-12T01:53:50.972Z,101168.50
2023-02-12T01:56:19.103Z,101178.41
2023-02-12T01:58:47.179Z,101169.25
2023-02-12T02:01:18.624Z,101162.16
2023-02-12T02:03:47.894Z,101172.63
2023-02-12T02:06:45.454Z,101174.59
2023-02-12T02:09:13.388Z,101171.63
2023-02-12T02:11:59.449Z,101163.56
2023-02-12T02:14:32.881Z,101165.94
2023-02-12T02:17:36.690Z,101164.88
2023-02-12T02:20:04.271Z,101153.81
2023-02-12T02:22:51.283Z,101156.13
2023-02-12T02:25:44.299Z,101156.50
2023-02-12T02:28:43.475Z,101151.72
2023-02-12T02:31:18.746Z,101148.63
2023-02-12T02:34:29.635Z,101140.31
2023-02-12T02:37:30.943Z,101149.97
2023-02-12T02:40:01.312Z,101161.56
2023-02-12T02:42:42.679Z,101159.72
2023-02-12T02:45:16.644Z,101151.41
2023-02-12T02:48:03.955Z,101124.66
2023-02-12T02:50:38.319Z,101144.81
2023-02-12T02:53:08.899Z,101142.28
2023-02-12T02:55:39.068Z,101147.16
2023-02-12T02:58:10.634Z,101139.56
2023-02-12T03:01:04.209Z,101134.84
2023-02-12T03:03:36.295Z,101135.53
2023-02-12T03:06:12.882Z,101144.59
2023-02-12T03:08:43.247Z,101133.50
2023-02-12T03:11:40.444Z,101135.44
2023-02-12T03:14:20.348Z,101141.16
2023-02-12T03:16:50.463Z,101139.59
2023-02-12T03:19:20.557Z,101148.97
2023-02-12T03:21:57.781Z,101139.81
2023-02-12T03:24:43.689Z,101125.50
2023-02-12T03:27:38.868Z,101112.66
2023-02-12T03:30:07.267Z,101112.75
2023-02-12T03:32:55.358Z,101116.81
2023-02-12T03:35:32.700Z,101108.06
2023-02-12T03:38:06.072Z,101102.59
2023-02-12T03:40:35.261Z,101108.06
2023-02-12T03:43:23.396Z,101105.00
2023-02-12T03:46:04.108Z,101103.94
2023-02-12T03:48:36.387Z,101108.22
2023-02-12T03:51:13.318Z,101105.13
2023-02-12T03:53:42.886Z,101101.13
2023-02-12T03:56:13.127Z,101099.25
2023-02-12T03:58:40.750Z,101103.50
2023-02-12T04:01:08.850Z,101092.88
2023-02-12T04:03:36.725Z,101100.91
2023-02-12T04:06:04.787Z,101087.91
2023-02-12T04:08:32.512Z,101095.81
2023-02-12T04:11:03.008Z,101091.03
2023-02-12T04:13:39.551Z,101079.94
2023-02-12T04:16:25.950Z,101091.72
2023-02-12T04:18:53.833Z,101084.72
2023-02-12T04:21:41.790Z,101090.59
2023-02-12T04:24:34.975Z,101091.34
2023-02-12T04:27:05.133Z,101091.94
2023-02-12T04:29:39.452Z,101088.94
2023-02-12T04:32:12.706Z,101085.56
2023-02-12T04:34:55.199Z,101079.09
2023-02-12T04:37:47.720Z,101080.06
2023-02-12T04:40:16.781Z,101073.56
2023-02-12T04:42:48.766Z,101079.00
2023-02-12T04:45:22.099Z,101079.84
2023-02-12T04:47:50.188Z,101087.06
2023-02-12T04:50:18.936Z,101082.59
2023-02-12T04:52:48.482Z,101080.16
2023-02-12T04:55:16.192Z,101087.34
2023-02-12T04:57:43.899Z,101074.25
2023-02-12T05:00:13.281Z,101070.38
2023-02-12T05:02:40.908Z,101067.06
2023-02-12T05:05:08.778Z,101078.91
2023-02-12T05:07:36.947Z,101073.75
2023-02-12T05:10:04.851Z,101071.03
2023-02-12T05:12:40.024Z,101083.16
2023-02-12T05:15:09.483Z,101079.34
2023-02-12T05:17:37.634Z,101085.97
2023-02-12T05:20:06.221Z,101083.06
2023-02-12T05:22:34.451Z,101083.19
2023-02-12T05:25:02.656Z,101086.09
2023-02-12T05:27:30.580Z,101085.16
2023-02-12T05:29:59.829Z,101085.38
2023-02-12T05:32:27.679Z,101094.59
2023-02-12T05:34:55.351Z,101081.50
2023-02-12T05:37:23.177Z,101095.22
2023-02-12T05:39:50.866Z,101094.59
2023-02-12T05:42:18.483Z,101099.25
2023-02-12T05:44:48.658Z,101091.41
2023-02-12T05:47:16.589Z,101098.00
2023-02-12T05:49:44.310Z,101095.41
2023-02-12T05:52:11.856Z,101099.69
2023-02-12T05:54:50.673Z,101094.16
2023-02-12T05:57:18.675Z,101101.69
2023-02-12T05:59:46.665Z,101098.31
2023-02-12T06:02:14.950Z,101093.72
2023-02-12T06:04:42.709Z,101087.63
2023-02-12T06:07:10.688Z,101097.34
2023-02-12T06:09:38.713Z,101102.47
2023-02-12T06:12:06.907Z,101096.13
2023-02-12T06:14:34.885Z,101100.41
2023-02-12T06:17:05.905Z,101101.22
2023-02-12T06:19:34.252Z,101103.50
2023-02-12T06:22:02.085Z,101101.06
2023-02-12T06:24:33.206Z,101100.63
2023-02-12T06:27:01.414Z,101090.31
2023-02-12T06:29:29.089Z,101103.25
2023-02-12T06:31:57.309Z,101096.03
2023-02-12T06:34:25.100Z,101104.31
2023-02-12T06:36:52.920Z,101106.81
2023-02-12T06:39:20.581Z,101108.69
2023-02-12T06:41:48.298Z,101109.41
2023-02-12T06:44:16.791Z,101105.72
2023-02-12T06:46:44.590Z,101109.03
2023-02-12T06:49:12.497Z,101114.56
2023-02-12T06:51:41.531Z,101111.50
2023-02-12T06:54:13.226Z,101108.75
2023-02-12T06:56:40.959Z,101115.53
2023-02-12T06:59:12.752Z,101113.44
2023-02-12T07:01:41.563Z,101116.44
2023-02-12T07:04:09.327Z,101120.78
2023-02-12T07:06:37.071Z,101118.69
2023-02-12T07:09:05.130Z,101112.38
2023-02-12T07:11:37.788Z,101109.28
2023-02-12T07:14:15.764Z,101115.06
2023-02-12T07:16:43.600Z,101116.13
2023-02-12T07:19:17.067Z,101118.00
2023-02-12T07:21:45.143Z,101125.09
2023-02-12T07:24:19.845Z,101135.75
2023-02-12T07:26:48.694Z,101131.47
2023-02-12T07:29:17.223Z,101139.63
2023-02-12T07:31:44.926Z,101137.22
2023-02-12T07:34:13.467Z,101152.97
2023-02-12T07:36:41.269Z,101169.72
2023-02-12T07:39:11.613Z,101191.22
2023-02-12T07:41:39.729Z,101225.03
2023-02-12T07:44:11.380Z,101276.56
2023-02-12T07:46:47.821Z,101291.47
2023-02-12T07:49:21.714Z,101297.34
2023-02-12T07:51:50.201Z,101311.38
2023-02-12T07:54:19.067Z,101315.72
2023-02-12T07:56:47.469Z,101310.50
2023-02-12T07:59:16.826Z,101324.38
2023-02-12T08:01:53.985Z,101334.59
2023-02-12T08:04:23.470Z,101355.03
2023-02-12T08:06:54.681Z,101352.66
2023-02-12T08:09:26.610Z,101351.00
2023-02-12T08:11:54.350Z,101358.72
2023-02-12T08:14:22.754Z,101361.72
2023-02-12T08:16:50.690Z,101375.50
2023-02-12T08:19:22.536Z,101386.63
2023-02-12T08:21:52.820Z,101373.94
2023-02-12T08:24:22.332Z,101385.38
2023-02-12T08:26:50.597Z,101392.69
2023-02-12T08:29:20.706Z,101392.88
2023-02-12T08:31:49.828Z,101358.47
2023-02-12T08:34:22.139Z,101398.09
2023-02-12T08:36:50.627Z,101402.72
2023-02-12T08:39:18.920Z,101413.69
2023-02-12T08:41:47.275Z,101417.53
2023-02-12T08:44:15.751Z,101411.00
2023-02-12T08:46:48.108Z,101428.78
2023-02-12T08:49:19.254Z,101416.06
2023-02-12T08:51:50.104Z,101423.28
2023-02-12T08:54:20.295Z,101436.19
2023-02-12T08:56:51.449Z,101442.50
2023-02-12T08:59:19.171Z,101430.34
2023-02-12T09:01:47.338Z,101451.94
2023-02-12T09:04:18.181Z,101441.78
2023-02-12T09:06:46.461Z,101434.78
2023-02-12T09:09:15.842Z,101470.59
2023-02-12T09:11:44.817Z,101451.81
2023-02-12T09:14:15.265Z,101457.47
2023-02-12T09:16:43.186Z,101461.28
2023-02-12T09:19:14.450Z,101480.03
2023-02-12T09:21:42.789Z,101487.91
2023-02-12T09:24:10.419Z,101490.56
2023-02-12T09:26:39.347Z,101490.69
2023-02-12T09:29:08.395Z,101487.91
2023-02-12T09:31:36.714Z,101507.97
2023-02-12T09:34:11.789Z,101500.31
2023-02-12T09:36:40.648Z,101503.88
2023-02-12T09:39:08.256Z,101504.78
2023-02-12T09:41:48.711Z,101500.41
2023-02-12T09:44:38.298Z,101495.59
2023-02-12T09:47:11.726Z,101495.16
2023-02-12T09:49:49.170Z,101491.09
2023-02-12T09:52:18.235Z,101500.72
2023-02-12T09:54:46.119Z,101498.88
2023-02-12T09:57:29.769Z,101483.75
2023-02-12T10:00:00.226Z,101508.41
2023-02-12T10:02:28.205Z,101517.50
2023-02-12T10:05:01.537Z,101502.47
2023-02-12T10:07:45.127Z,101501.38
2023-02-12T10:10:37.479Z,101521.19
2023-02-12T10:13:19.278Z,101516.06
2023-02-12T10:15:58.725Z,101506.13
2023-02-12T10:18:57.332Z,101476.13
2023-02-12T10:21:31.006Z,101549.66
2023-02-12T10:24:18.891Z,101566.06
2023-02-12T10:26:50.816Z,101553.81
2023-02-12T10:29:38.810Z,101577.06
2023-02-12T10:32:16.481Z,101558.94
2023-02-12T10:34:44.235Z,101575.38
2023-02-12T10:37:20.710Z,101583.28
2023-02-12T10:39:55.800Z,101579.34
2023-02-12T10:42:36.347Z,101576.03
2023-02-12T10:45:04.658Z,101594.22
2023-02-12T10:47:32.378Z,101602.19
2023-02-12T10:50:01.496Z,101617.91
2023-02-12T10:52:42.346Z,101600.13
2023-02-12T10:55:25.758Z,101604.44
2023-02-12T10:57:55.049Z,101618.84
2023-02-12T11:00:34.730Z,101624.78
2023-02-12T11:03:12.063Z,101642.09
2023-02-12T11:05:42.011Z,101639.75
2023-02-12T11:08:31.566Z,101635.44
2023-02-12T11:11:06.840Z,101628.53
2023-02-12T11:13:35.334Z,101637.88
2023-02-12T11:16:03.530Z,101647.16
2023-02-12T11:18:34.640Z,101680.09
2023-02-12T11:21:11.822Z,101654.81
2023-02-12T11:23:40.119Z,101664.78
2023-02-12T11:26:19.828Z,101654.59
2023-02-12T11:29:00.888Z,101655.75
2023-02-12T11:31:35.332Z,101688.25
2023-02-12T11:34:12.883Z,101646.28
2023-02-12T11:36:46.389Z,101662.22
2023-02-12T11:39:37.515Z,101656.19
2023-02-12T11:42:23.456Z,101655.88
2023-02-12T11:44:55.821Z,101690.78
2023-02-12T11:47:31.134Z,101663.25
2023-02-12T11:50:08.010Z,101667.91
2023-02-12T11:52:36.872Z,101652.94
2023-02-12T11:55:18.662Z,101658.88
2023-02-12T11:57:51.347Z,101665.88
2023-02-12T12:00:28.425Z,101653.06
2023-02-12T12:03:11.662Z,101645.94
2023-02-12T12:05:43.874Z,101649.72
2023-02-12T12:08:34.177Z,101659.16
2023-02-12T12:11:17.503Z,101646.59
2023-02-12T12:15:01.189Z,101654.63
2023-02-12T12:18:13.058Z,101671.84
2023-02-12T12:20:55.519Z,101716.63
2023-02-12T12:23:33.201Z,101669.56
2023-02-12T12:26:04.939Z,101693.91
2023-02-12T12:28:56.268Z,101694.09
2023-02-12T12:31:39.390Z,101676.91
2023-02-12T12:34:09.086Z,101692.50
2023-02-12T12:37:03.791Z,101696.63
2023-02-12T12:39:52.585Z,101701.31
2023-02-12T12:42:23.335Z,101710.19
2023-02-12T12:45:12.230Z,101706.75
2023-02-12T12:48:01.343Z,101709.03
2023-02-12T12:50:35.564Z,101695.06
2023-02-12T12:53:05.424Z,101709.88
2023-02-12T12:55:51.710Z,101716.13
2023-02-12T12:58:35.808Z,101703.44
2023-02-12T13:01:27.532Z,101719.34
2023-02-12T13:04:05.825Z,101714.34
2023-02-12T13:06:42.826Z,101727.91
2023-02-12T13:09:30.378Z,101715.81
2023-02-12T13:12:25.533Z,101719.25
2023-02-12T13:15:02.222Z,101718.81
2023-02-12T13:17:52.500Z,101704.13
2023-02-12T13:20:29.038Z,101722.31
2023-02-12T13:23:00.431Z,101740.44
2023-02-12T13:25:34.373Z,101736.44
2023-02-12T13:28:02.811Z,101732.19
2023-02-12T13:30:39.193Z,101720.53
2023-02-12T13:33:22.530Z,101740.06
2023-02-12T13:35:55.413Z,101743.00
2023-02-12T13:38:30.469Z,101743.09
2023-02-12T13:41:00.566Z,101735.19
2023-02-12T13:43:57.344Z,101737.13
2023-02-12T13:46:47.126Z,101736.25
2023-02-12T13:49:42.770Z,101734.31
2023-02-12T13:52:28.504Z,101723.59
2023-02-12T13:55:11.401Z,101726.78
2023-02-12T13:57:39.285Z,101720.06
2023-02-12T14:00:30.311Z,101733.69
2023-02-12T14:02:58.254Z,101739.25
2023-02-12T14:05:29.970Z,101751.88
2023-02-12T14:08:05.517Z,101750.88
2023-02-12T14:10:39.654Z,101747.22
2023-02-12T14:13:21.691Z,101749.91
2023-02-12T14:15:56.750Z,101762.16
2023-02-12T14:18:31.878Z,101772.72
2023-02-12T14:21:11.633Z,101759.50
2023-02-12T14:23:46.465Z,101772.53
2023-02-12T14:26:15.509Z,101756.91
2023-02-12T14:29:00.709Z,101774.25
2023-02-12T14:31:37.823Z,101782.28
2023-02-12T14:34:05.561Z,101754.09
2023-02-12T14:36:33.196Z,101783.72
2023-02-12T14:39:06.158Z,101774.44
2023-02-12T14:41:38.175Z,101774.22
2023-02-12T14:44:28.904Z,101788.81
2023-02-12T14:46:57.128Z,101799.06
2023-02-12T14:49:39.225Z,101806.72
2023-02-12T14:52:17.977Z,101816.81
2023-02-12T14:54:55.620Z,101813.16
2023-02-12T14:57:38.263Z,101831.59
2023-02-12T15:00:18.225Z,101826.31
2023-02-12T15:02:49.880Z,101812.59
2023-02-12T15:05:29.488Z,101822.84
2023-02-12T15:08:17.026Z,101824.47
2023-02-12T15:10:50.404Z,101819.41
2023-02-12T15:13:23.456Z,101833.00
2023-02-12T15:15:53.289Z,101835.81
2023-02-12T15:19:09.439Z,101845.06
2023-02-12T15:21:37.151Z,101853.56
2023-02-12T15:24:11.586Z,101855.19
2023-02-12T15:26:50.294Z,101853.06
2023-02-12T15:29:24.215Z,101846.53
2023-02-12T15:32:00.195Z,101865.59
2023-02-12T15:34:30.617Z,101873.25
2023-02-12T15:37:00.315Z,101869.66
2023-02-12T15:39:29.008Z,101878.84
2023-02-12T15:41:56.634Z,101877.00
2023-02-12T15:44:31.588Z,101890.09
2023-02-12T15:47:15.719Z,101884.69
2023-02-12T15:49:43.807Z,101896.78
2023-02-12T15:52:22.587Z,101912.53
2023-02-12T15:54:50.257Z,101910.97
2023-02-12T15:57:23.295Z,101912.28
2023-02-12T15:59:52.985Z,101904.50
2023-02-12T16:02:25.602Z,101906.31
2023-02-12T16:04:53.131Z,101919.81
2023-02-12T16:07:22.578Z,101912.03
2023-02-12T16:09:51.174Z,101931.06
2023-02-12T16:12:20.677Z,101931.56
2023-02-12T16:14:50.124Z,101946.91
2023-02-12T16:17:29.528Z,101933.81
2023-02-12T16:20:01.043Z,101942.03
2023-02-12T16:22:34.637Z,101933.66
2023-02-12T16:25:02.632Z,101926.22
2023-02-12T16:27:32.176Z,101914.63
2023-02-12T16:30:20.904Z,101929.25
2023-02-12T16:32:49.087Z,101936.06
2023-02-12T16:35:16.870Z,101938.91
2023-02-12T16:37:48.573Z,101928.75
2023-02-12T16:40:16.623Z,101931.25
2023-02-12T16:42:47.419Z,101933.75
2023-02-12T16:45:34.754Z,101937.13
2023-02-12T16:48:07.067Z,101927.09
2023-02-12T16:50:43.746Z,101932.28
2023-02-12T16:53:36.513Z,101930.97
2023-02-12T16:56:04.922Z,101930.28
2023-02-12T16:58:33.448Z,101932.63
2023-02-12T17:01:02.633Z,101939.03
2023-02-12T17:03:31.344Z,101950.06
2023-02-12T17:05:59.378Z,101928.63
2023-02-12T17:08:28.693Z,101933.56
2023-02-12T17:10:56.290Z,101951.06
2023-02-12T17:13:25.664Z,101956.59
2023-02-12T17:15:56.317Z,101956.13
2023-02-12T17:18:24.818Z,101957.06
2023-02-12T17:20:57.090Z,101959.00
2023-02-12T17:23:25.237Z,101958.56
2023-02-12T17:25:52.997Z,101954.06
2023-02-12T17:28:22.984Z,101951.47
2023-02-12T17:30:51.381Z,101955.88
2023-02-12T17:33:19.811Z,101950.88
2023-02-12T17:35:47.491Z,101945.25
2023-02-12T17:38:15.581Z,101966.34
2023-02-12T17:40:43.123Z,101974.28
2023-02-12T17:43:10.791Z,101973.59
2023-02-12T17:45:45.390Z,101977.41
2023-02-12T17:48:13.830Z,101978.28
2023-02-12T17:50:41.765Z,101983.38
2023-02-12T17:53:09.529Z,101963.72
2023-02-12T17:55:42.795Z,101992.69
2023-02-12T17:58:10.589Z,101990.88
2023-02-12T18:00:40.328Z,101985.16
2023-02-12T18:03:11.235Z,102000.47
2023-02-12T18:05:43.137Z,101991.66
2023-02-12T18:08:10.977Z,101989.16
2023-02-12T18:10:42.796Z,102007.75
2023-02-12T18:13:10.795Z,101989.63
2023-02-12T18:15:40.293Z,102003.25
2023-02-12T18:18:08.481Z,102001.88
2023-02-12T18:20:36.692Z,102010.00
2023-02-12T18:23:04.830Z,102004.16
2023-02-12T18:25:32.651Z,102006.97
2023-02-12T18:28:01.679Z,101999.09
2023-02-12T18:30:29.572Z,102008.59
2023-02-12T18:32:57.485Z,102000.25
2023-02-12T18:35:25.532Z,102010.47
2023-02-12T18:37:53.302Z,102013.94
2023-02-12T18:40:21.141Z,102013.53
2023-02-12T18:42:52.499Z,102017.91
2023-02-12T18:45:21.780Z,102026.09
2023-02-12T18:47:49.353Z,102016.34
2023-02-12T18:50:17.263Z,102014.34
2023-02-12T18:52:45.728Z,102016.63
2023-02-12T18:55:13.358Z,102017.38
2023-02-12T18:57:40.928Z,102017.03
2023-02-12T19:00:09.810Z,102014.59
2023-02-12T19:02:37.470Z,102026.03
2023-02-12T19:05:05.548Z,102026.97
2023-02-12T19:07:33.169Z,102013.81
2023-02-12T19:10:00.942Z,102026.56
2023-02-12T19:12:29.410Z,102022.13
2023-02-12T19:14:57.352Z,102010.03
2023-02-12T19:17:25.264Z,102016.09
2023-02-12T19:19:53.345Z,102016.09
2023-02-12T19:22:20.995Z,102021.66
2023-02-12T19:24:51.031Z,102035.78
2023-02-12T19:27:18.853Z,102034.44
2023-02-12T19:29:46.498Z,102033.16
2023-02-12T19:32:14.464Z,102030.97
2023-02-12T19:34:42.302Z,102040.25
2023-02-12T19:37:11.796Z,102040.88
2023-02-12T19:39:40.122Z,102050.97
2023-02-12T19:42:07.782Z,102058.59
2023-02-12T19:44:36.035Z,102052.13
2023-02-12T19:47:03.929Z,102059.94
2023-02-12T19:49:33.795Z,102068.13
2023-02-12T19:52:01.561Z,102065.50
2023-02-12T19:54:29.453Z,102058.03
2023-02-12T19:56:57.329Z,102058.22
2023-02-12T19:59:25.480Z,102068.00
2023-02-12T20:01:53.848Z,102080.44
2023-02-12T20:04:22.380Z,102082.31
2023-02-12T20:06:51.320Z,102077.91
2023-02-12T20:09:19.842Z,102085.00
2023-02-12T20:11:47.594Z,102102.78
2023-02-12T20:14:15.708Z,102109.09
2023-02-12T20:16:46.807Z,102113.34
2023-02-12T20:19:25.284Z,102121.53
2023-02-12T20:21:56.814Z,102132.25
2023-02-12T20:24:26.399Z,102123.38
2023-02-12T20:26:54.296Z,102132.66
2023-02-12T20:29:22.662Z,102135.75
2023-02-12T20:31:50.484Z,102129.00
2023-02-12T20:34:18.950Z,102143.03
2023-02-12T20:36:47.189Z,102139.00
2023-02-12T20:39:16.919Z,102140.63
2023-02-12T20:41:45.365Z,102145.50
2023-02-12T20:44:15.947Z,102151.72
2023-02-12T20:46:47.226Z,102165.53
2023-02-12T20:49:15.461Z,102159.91
2023-02-12T20:51:43.238Z,102162.06
2023-02-12T20:54:11.132Z,102165.56
2023-02-12T20:56:39.162Z,102174.97
2023-02-12T20:59:07.204Z,102170.16
2023-02-12T21:01:39.396Z,102167.09
2023-02-12T21:04:09.428Z,102167.16
2023-02-12T21:06:39.497Z,102172.59
2023-02-12T21:09:09.697Z,102179.72
2023-02-12T21:11:37.351Z,102180.41
2023-02-12T21:14:21.407Z,102182.66
2023-02-12T21:16:50.153Z,102177.53
2023-02-12T21:19:18.989Z,102182.97
2023-02-12T21:21:47.931Z,102178.47
2023-02-12T21:24:18.379Z,102181.84
2023-02-12T21:26:46.071Z,102189.50
2023-02-12T21:29:13.805Z,102182.34
2023-02-12T21:31:45.706Z,102189.97
2023-02-12T21:34:18.434Z,102188.03
2023-02-12T21:36:46.937Z,102191.06
2023-02-12T21:39:24.431Z,102197.03
2023-02-12T21:41:54.195Z,102204.06
2023-02-12T21:44:22.345Z,102206.28
2023-02-12T21:46:49.998Z,102201.44
2023-02-12T21:49:28.349Z,102206.38
2023-02-12T21:51:58.258Z,102202.66
2023-02-12T21:54:25.923Z,102213.63
2023-02-12T21:56:53.756Z,102202.59
2023-02-12T21:59:22.477Z,102206.22
2023-02-12T22:01:51.664Z,102207.16
2023-02-12T22:04:19.537Z,102206.28
2023-02-12T22:06:48.738Z,102205.94
2023-02-12T22:09:18.347Z,102203.75
2023-02-12T22:11:46.373Z,102198.47
2023-02-12T22:14:15.674Z,102199.72
2023-02-12T22:16:44.944Z,102209.03
2023-02-12T22:19:12.936Z,102209.13
2023-02-12T22:21:41.100Z,102212.25
2023-02-12T22:24:12.322Z,102207.84
2023-02-12T22:26:39.959Z,102207.59
2023-02-12T22:29:09.895Z,102219.19
2023-02-12T22:31:38.989Z,102217.94
2023-02-12T22:34:08.579Z,102220.72
2023-02-12T22:36:38.366Z,102215.38
2023-02-12T22:39:06.094Z,102214.09
2023-02-12T22:41:34.025Z,102222.94
2023-02-12T22:44:02.487Z,102220.91
2023-02-12T22:46:30.347Z,102215.94
2023-02-12T22:49:00.340Z,102210.34
2023-02-12T22:51:29.675Z,102214.28
2023-02-12T22:53:57.754Z,102212.31
2023-02-12T22:56:25.879Z,102207.44
2023-02-12T22:58:57.544Z,102211.03
2023-02-12T23:01:30.400Z,102210.63
2023-02-12T23:03:58.139Z,102210.19
2023-02-12T23:06:27.535Z,102217.19
2023-02-12T23:08:59.107Z,102211.44
2023-02-12T23:11:28.257Z,102218.84
2023-02-12T23:13:56.053Z,102217.09
2023-02-12T23:16:23.924Z,102221.09
2023-02-12T23:18:58.679Z,102213.97
2023-02-12T23:21:26.908Z,102225.88
2023-02-12T23:23:54.667Z,102223.22
2023-02-12T23:26:22.291Z,102231.31
2023-02-12T23:28:50.040Z,102237.63
2023-02-12T23:31:18.057Z,102240.34
2023-02-12T23:33:45.792Z,102234.78
2023-02-12T23:36:13.682Z,102239.56
2023-02-12T23:38:42.433Z,102242.19
2023-02-12T23:41:09.963Z,102257.44
2023-02-12T23:43:39.398Z,102248.88
2023-02-12T23:46:08.342Z,102252.97
2023-02-12T23:48:36.761Z,102251.34
2023-02-12T23:51:04.625Z,102240.00
2023-02-12T23:53:32.220Z,102247.09
2023-02-12T23:55:59.813Z,102240.06
2023-02-12T23:58:27.524Z,102239.28
